sensor_id;sensor_type;location;lat;lon;timestamp;temperature;humidity
24250;DHT22;12379;49.820;8.648;2023-03-14T00:01:54;11.00;99.90
24250;DHT22;12379;49.820;8.648;2023-03-14T00:04:19;10.90;99.90
24250;DHT22;12379;49.820;8.648;2023-03-14T00:06:45;11.00;99.90
24250;DHT22;12379;49.820;8.648;2023-03-14T00:09:12;11.00;99.90
24250;DHT22;12379;49.820;8.648;2023-03-14T00:11:38;11.00;99.90
24250;DHT22;12379;49.820;8.648;2023-03-14T00:14:04;11.10;99.90
24250;DHT22;12379;49.820;8.648;2023-03-14T00:16:29;11.00;99.90
24250;DHT22;12379;49.820;8.648;2023-03-14T00:18:55;11.00;99.90
24250;DHT22;12379;49.820;8.648;2023-03-14T00:21:20;11.00;99.90
24250;DHT22;12379;49.820;8.648;2023-03-14T00:23:46;11.00;99.90
24250;DHT22;12379;49.820;8.648;2023-03-14T00:26:15;10.90;99.90
24250;DHT22;12379;49.820;8.648;2023-03-14T00:28:42;11.00;99.90
24250;DHT22;12379;49.820;8.648;2023-03-14T00:31:10;11.00;99.90
24250;DHT22;12379;49.820;8.648;2023-03-14T00:33:36;10.90;99.90
24250;DHT22;12379;49.820;8.648;2023-03-14T00:36:12;10.80;99.90
24250;DHT22;12379;49.820;8.648;2023-03-14T00:38:38;10.90;99.90
24250;DHT22;12379;49.820;8.648;2023-03-14T00:41:12;10.90;99.90
24250;DHT22;12379;49.820;8.648;2023-03-14T00:43:39;11.00;99.90
24250;DHT22;12379;49.820;8.648;2023-03-14T00:46:05;11.00;99.90
24250;DHT22;12379;49.820;8.648;2023-03-14T00:48:30;10.90;99.90
24250;DHT22;12379;49.820;8.648;2023-03-14T00:50:56;11.00;99.90
24250;DHT22;12379;49.820;8.648;2023-03-14T00:53:22;10.90;99.90
24250;DHT22;12379;49.820;8.648;2023-03-14T00:55:47;10.90;99.90
24250;DHT22;12379;49.820;8.648;2023-03-14T00:58:15;10.90;99.90
24250;DHT22;12379;49.820;8.648;2023-03-14T01:00:41;10.90;99.90
24250;DHT22;12379;49.820;8.648;2023-03-14T01:03:08;10.90;99.90
24250;DHT22;12379;49.820;8.648;2023-03-14T01:05:34;10.90;99.90
24250;DHT22;12379;49.820;8.648;2023-03-14T01:07:59;10.90;99.90
24250;DHT22;12379;49.820;8.648;2023-03-14T01:10:25;10.90;99.90
24250;DHT22;12379;49.820;8.648;2023-03-14T01:12:51;10.90;99.90
24250;DHT22;12379;49.820;8.648;2023-03-14T01:15:19;11.00;99.90
24250;DHT22;12379;49.820;8.648;2023-03-14T01:17:46;11.10;99.90
24250;DHT22;12379;49.820;8.648;2023-03-14T01:20:14;11.00;99.90
24250;DHT22;12379;49.820;8.648;2023-03-14T01:22:40;11.00;99.90
24250;DHT22;12379;49.820;8.648;2023-03-14T01:25:08;11.00;99.90
24250;DHT22;12379;49.820;8.648;2023-03-14T01:27:34;11.00;99.90
24250;DHT22;12379;49.820;8.648;2023-03-14T01:29:59;11.00;99.90
24250;DHT22;12379;49.820;8.648;2023-03-14T01:32:26;11.00;99.90
24250;DHT22;12379;49.820;8.648;2023-03-14T01:34:52;11.00;99.90
24250;DHT22;12379;49.820;8.648;2023-03-14T01:37:17;11.00;99.90
24250;DHT22;12379;49.820;8.648;2023-03-14T01:39:47;11.00;99.90
24250;DHT22;12379;49.820;8.648;2023-03-14T01:42:12;11.00;99.90
24250;DHT22;12379;49.820;8.648;2023-03-14T01:44:58;11.10;99.90
24250;DHT22;12379;49.820;8.648;2023-03-14T01:47:25;11.10;99.90
24250;DHT22;12379;49.820;8.648;2023-03-14T01:50:06;11.10;99.90
24250;DHT22;12379;49.820;8.648;2023-03-14T01:52:39;11.10;99.90
24250;DHT22;12379;49.820;8.648;2023-03-14T01:55:12;11.10;99.90
24250;DHT22;12379;49.820;8.648;2023-03-14T01:57:43;11.00;99.90
24250;DHT22;12379;49.820;8.648;2023-03-14T02:00:13;10.90;99.90
24250;DHT22;12379;49.820;8.648;2023-03-14T02:02:42;11.00;99.90
24250;DHT22;12379;49.820;8.648;2023-03-14T02:05:09;11.00;99.90
24250;DHT22;12379;49.820;8.648;2023-03-14T02:07:41;11.00;99.90
24250;DHT22;12379;49.820;8.648;2023-03-14T02:10:10;11.00;99.90
24250;DHT22;12379;49.820;8.648;2023-03-14T02:12:36;10.90;99.90
24250;DHT22;12379;49.820;8.648;2023-03-14T02:15:03;11.00;99.90
24250;DHT22;12379;49.820;8.648;2023-03-14T02:17:29;10.90;99.90
24250;DHT22;12379;49.820;8.648;2023-03-14T02:22:37;10.90;99.90
24250;DHT22;12379;49.820;8.648;2023-03-14T02:28:00;10.90;99.90
24250;DHT22;12379;49.820;8.648;2023-03-14T02:30:28;10.90;99.90
24250;DHT22;12379;49.820;8.648;2023-03-14T02:32:57;10.90;99.90
24250;DHT22;12379;49.820;8.648;2023-03-14T02:35:27;10.90;99.90
24250;DHT22;12379;49.820;8.648;2023-03-14T02:40:46;10.90;99.90
24250;DHT22;12379;49.820;8.648;2023-03-14T02:43:12;10.90;99.90
24250;DHT22;12379;49.820;8.648;2023-03-14T02:45:41;10.90;99.90
24250;DHT22;12379;49.820;8.648;2023-03-14T02:48:18;10.80;99.90
24250;DHT22;12379;49.820;8.648;2023-03-14T02:50:46;10.90;99.90
24250;DHT22;12379;49.820;8.648;2023-03-14T02:53:16;10.90;99.90
24250;DHT22;12379;49.820;8.648;2023-03-14T02:55:45;11.00;99.90
24250;DHT22;12379;49.820;8.648;2023-03-14T02:58:11;11.00;99.90
24250;DHT22;12379;49.820;8.648;2023-03-14T03:00:37;10.90;99.90
24250;DHT22;12379;49.820;8.648;2023-03-14T03:03:03;10.90;99.90
24250;DHT22;12379;49.820;8.648;2023-03-14T03:05:31;10.90;99.90
24250;DHT22;12379;49.820;8.648;2023-03-14T03:07:57;10.80;99.90
24250;DHT22;12379;49.820;8.648;2023-03-14T03:10:23;10.80;99.90
24250;DHT22;12379;49.820;8.648;2023-03-14T03:12:48;10.80;99.90
24250;DHT22;12379;49.820;8.648;2023-03-14T03:15:14;10.80;99.90
24250;DHT22;12379;49.820;8.648;2023-03-14T03:17:39;10.80;99.90
24250;DHT22;12379;49.820;8.648;2023-03-14T03:20:06;10.80;99.90
24250;DHT22;12379;49.820;8.648;2023-03-14T03:22:35;10.80;99.90
24250;DHT22;12379;49.820;8.648;2023-03-14T03:25:01;10.70;99.90
24250;DHT22;12379;49.820;8.648;2023-03-14T03:27:28;10.80;99.90
24250;DHT22;12379;49.820;8.648;2023-03-14T03:29:54;10.70;99.90
24250;DHT22;12379;49.820;8.648;2023-03-14T03:32:20;10.70;99.90
24250;DHT22;12379;49.820;8.648;2023-03-14T03:34:45;10.60;99.90
24250;DHT22;12379;49.820;8.648;2023-03-14T03:37:11;10.60;99.90
24250;DHT22;12379;49.820;8.648;2023-03-14T03:39:36;10.70;99.90
24250;DHT22;12379;49.820;8.648;2023-03-14T03:42:02;10.70;99.90
24250;DHT22;12379;49.820;8.648;2023-03-14T03:44:27;10.60;99.90
24250;DHT22;12379;49.820;8.648;2023-03-14T03:46:53;10.60;99.90
24250;DHT22;12379;49.820;8.648;2023-03-14T03:49:18;10.70;99.90
24250;DHT22;12379;49.820;8.648;2023-03-14T03:51:44;10.70;99.90
24250;DHT22;12379;49.820;8.648;2023-03-14T03:54:09;10.70;99.90
24250;DHT22;12379;49.820;8.648;2023-03-14T03:56:35;10.70;99.90
24250;DHT22;12379;49.820;8.648;2023-03-14T03:59:00;10.70;99.90
24250;DHT22;12379;49.820;8.648;2023-03-14T04:01:26;10.60;99.90
24250;DHT22;12379;49.820;8.648;2023-03-14T04:03:52;10.60;99.90
24250;DHT22;12379;49.820;8.648;2023-03-14T04:06:17;10.50;99.90
24250;DHT22;12379;49.820;8.648;2023-03-14T04:08:43;10.50;99.90
24250;DHT22;12379;49.820;8.648;2023-03-14T04:11:09;10.50;99.90
24250;DHT22;12379;49.820;8.648;2023-03-14T04:13:34;10.50;99.90
24250;DHT22;12379;49.820;8.648;2023-03-14T04:16:00;10.60;99.90
24250;DHT22;12379;49.820;8.648;2023-03-14T04:18:26;10.60;99.90
24250;DHT22;12379;49.820;8.648;2023-03-14T04:20:55;10.70;99.90
24250;DHT22;12379;49.820;8.648;2023-03-14T04:23:22;10.60;99.90
24250;DHT22;12379;49.820;8.648;2023-03-14T04:25:50;10.70;99.90
24250;DHT22;12379;49.820;8.648;2023-03-14T04:28:18;10.70;99.90
24250;DHT22;12379;49.820;8.648;2023-03-14T04:30:44;10.70;99.90
24250;DHT22;12379;49.820;8.648;2023-03-14T04:33:09;10.70;99.90
24250;DHT22;12379;49.820;8.648;2023-03-14T04:35:36;10.70;99.90
24250;DHT22;12379;49.820;8.648;2023-03-14T04:38:02;10.60;99.90
24250;DHT22;12379;49.820;8.648;2023-03-14T04:40:28;10.60;99.90
24250;DHT22;12379;49.820;8.648;2023-03-14T04:42:53;10.70;99.90
24250;DHT22;12379;49.820;8.648;2023-03-14T04:45:19;10.80;99.90
24250;DHT22;12379;49.820;8.648;2023-03-14T04:47:44;10.80;99.90
24250;DHT22;12379;49.820;8.648;2023-03-14T04:50:10;10.70;99.90
24250;DHT22;12379;49.820;8.648;2023-03-14T04:52:36;10.80;99.90
24250;DHT22;12379;49.820;8.648;2023-03-14T04:55:02;10.80;99.90
24250;DHT22;12379;49.820;8.648;2023-03-14T04:57:27;10.90;99.90
24250;DHT22;12379;49.820;8.648;2023-03-14T04:59:53;10.80;99.90
24250;DHT22;12379;49.820;8.648;2023-03-14T05:02:19;10.80;99.90
24250;DHT22;12379;49.820;8.648;2023-03-14T05:04:44;10.90;99.90
24250;DHT22;12379;49.820;8.648;2023-03-14T05:07:10;10.80;99.90
24250;DHT22;12379;49.820;8.648;2023-03-14T05:09:35;10.90;99.90
24250;DHT22;12379;49.820;8.648;2023-03-14T05:12:01;10.90;99.90
24250;DHT22;12379;49.820;8.648;2023-03-14T05:14:26;10.80;99.90
24250;DHT22;12379;49.820;8.648;2023-03-14T05:16:52;10.80;99.90
24250;DHT22;12379;49.820;8.648;2023-03-14T05:19:17;10.90;99.90
24250;DHT22;12379;49.820;8.648;2023-03-14T05:21:43;10.90;99.90
24250;DHT22;12379;49.820;8.648;2023-03-14T05:24:08;10.90;99.90
24250;DHT22;12379;49.820;8.648;2023-03-14T05:26:34;10.90;99.90
24250;DHT22;12379;49.820;8.648;2023-03-14T05:29:00;10.80;99.90
24250;DHT22;12379;49.820;8.648;2023-03-14T05:31:25;10.90;99.90
24250;DHT22;12379;49.820;8.648;2023-03-14T05:33:51;10.90;99.90
24250;DHT22;12379;49.820;8.648;2023-03-14T05:36:16;10.90;99.90
24250;DHT22;12379;49.820;8.648;2023-03-14T05:38:42;10.90;99.90
24250;DHT22;12379;49.820;8.648;2023-03-14T05:41:07;10.90;99.90
24250;DHT22;12379;49.820;8.648;2023-03-14T05:43:33;10.90;99.90
24250;DHT22;12379;49.820;8.648;2023-03-14T05:45:58;11.00;99.90
24250;DHT22;12379;49.820;8.648;2023-03-14T05:48:24;11.00;99.90
24250;DHT22;12379;49.820;8.648;2023-03-14T05:50:55;11.00;99.90
24250;DHT22;12379;49.820;8.648;2023-03-14T05:53:21;10.90;99.90
24250;DHT22;12379;49.820;8.648;2023-03-14T05:55:46;10.90;99.90
24250;DHT22;12379;49.820;8.648;2023-03-14T05:58:12;11.00;99.90
24250;DHT22;12379;49.820;8.648;2023-03-14T06:00:37;10.90;99.90
24250;DHT22;12379;49.820;8.648;2023-03-14T06:03:03;10.80;99.90
24250;DHT22;12379;49.820;8.648;2023-03-14T06:05:28;10.70;99.90
24250;DHT22;12379;49.820;8.648;2023-03-14T06:07:54;10.70;99.90
24250;DHT22;12379;49.820;8.648;2023-03-14T06:10:20;10.80;99.90
24250;DHT22;12379;49.820;8.648;2023-03-14T06:12:45;10.80;99.90
24250;DHT22;12379;49.820;8.648;2023-03-14T06:15:11;10.70;99.90
24250;DHT22;12379;49.820;8.648;2023-03-14T06:17:36;10.80;99.90
24250;DHT22;12379;49.820;8.648;2023-03-14T06:20:02;10.80;99.90
24250;DHT22;12379;49.820;8.648;2023-03-14T06:22:27;10.80;99.90
24250;DHT22;12379;49.820;8.648;2023-03-14T06:24:53;10.90;99.90
24250;DHT22;12379;49.820;8.648;2023-03-14T06:27:18;10.80;99.90
24250;DHT22;12379;49.820;8.648;2023-03-14T06:29:44;10.80;99.90
24250;DHT22;12379;49.820;8.648;2023-03-14T06:32:09;10.80;99.90
24250;DHT22;12379;49.820;8.648;2023-03-14T06:34:35;10.70;99.90
24250;DHT22;12379;49.820;8.648;2023-03-14T06:37:00;10.70;99.90
24250;DHT22;12379;49.820;8.648;2023-03-14T06:39:26;10.70;99.90
24250;DHT22;12379;49.820;8.648;2023-03-14T06:41:51;10.70;99.90
24250;DHT22;12379;49.820;8.648;2023-03-14T06:44:17;10.80;99.90
24250;DHT22;12379;49.820;8.648;2023-03-14T06:46:42;10.70;99.90
24250;DHT22;12379;49.820;8.648;2023-03-14T06:49:08;10.70;99.90
24250;DHT22;12379;49.820;8.648;2023-03-14T06:51:33;10.70;99.90
24250;DHT22;12379;49.820;8.648;2023-03-14T06:53:59;10.60;99.90
24250;DHT22;12379;49.820;8.648;2023-03-14T06:56:25;10.60;99.90
24250;DHT22;12379;49.820;8.648;2023-03-14T06:58:50;10.50;99.90
24250;DHT22;12379;49.820;8.648;2023-03-14T07:01:27;10.60;99.90
24250;DHT22;12379;49.820;8.648;2023-03-14T07:03:53;10.60;99.90
24250;DHT22;12379;49.820;8.648;2023-03-14T07:06:19;10.60;99.90
24250;DHT22;12379;49.820;8.648;2023-03-14T07:08:47;10.80;99.90
24250;DHT22;12379;49.820;8.648;2023-03-14T07:11:13;10.80;99.90
24250;DHT22;12379;49.820;8.648;2023-03-14T07:13:40;10.90;99.90
24250;DHT22;12379;49.820;8.648;2023-03-14T07:18:44;10.80;99.90
24250;DHT22;12379;49.820;8.648;2023-03-14T07:21:20;10.90;99.90
24250;DHT22;12379;49.820;8.648;2023-03-14T07:31:34;10.90;99.90
24250;DHT22;12379;49.820;8.648;2023-03-14T07:34:04;10.90;99.90
24250;DHT22;12379;49.820;8.648;2023-03-14T07:36:33;10.90;99.90
24250;DHT22;12379;49.820;8.648;2023-03-14T07:39:03;10.90;99.90
24250;DHT22;12379;49.820;8.648;2023-03-14T07:41:33;11.10;99.90
24250;DHT22;12379;49.820;8.648;2023-03-14T07:44:00;11.00;99.90
24250;DHT22;12379;49.820;8.648;2023-03-14T07:46:25;11.00;99.90
24250;DHT22;12379;49.820;8.648;2023-03-14T07:48:53;11.20;99.90
24250;DHT22;12379;49.820;8.648;2023-03-14T07:51:19;11.20;99.90
24250;DHT22;12379;49.820;8.648;2023-03-14T07:53:48;11.10;99.90
24250;DHT22;12379;49.820;8.648;2023-03-14T07:56:15;11.20;99.90
24250;DHT22;12379;49.820;8.648;2023-03-14T07:58:41;11.30;99.90
24250;DHT22;12379;49.820;8.648;2023-03-14T08:01:11;11.40;99.90
24250;DHT22;12379;49.820;8.648;2023-03-14T08:04:21;11.50;99.90
24250;DHT22;12379;49.820;8.648;2023-03-14T08:06:47;11.40;99.90
24250;DHT22;12379;49.820;8.648;2023-03-14T08:09:19;11.50;99.90
24250;DHT22;12379;49.820;8.648;2023-03-14T08:11:46;11.50;99.90
24250;DHT22;12379;49.820;8.648;2023-03-14T08:14:13;11.50;99.90
24250;DHT22;12379;49.820;8.648;2023-03-14T08:16:39;11.60;99.90
24250;DHT22;12379;49.820;8.648;2023-03-14T08:19:05;11.60;99.90
24250;DHT22;12379;49.820;8.648;2023-03-14T08:21:42;11.50;99.90
24250;DHT22;12379;49.820;8.648;2023-03-14T08:24:08;11.50;99.90
24250;DHT22;12379;49.820;8.648;2023-03-14T08:29:03;11.80;99.90
24250;DHT22;12379;49.820;8.648;2023-03-14T08:31:47;11.70;99.90
24250;DHT22;12379;49.820;8.648;2023-03-14T08:34:14;11.80;99.90
24250;DHT22;12379;49.820;8.648;2023-03-14T08:36:40;11.90;99.90
24250;DHT22;12379;49.820;8.648;2023-03-14T08:39:06;11.80;99.90
24250;DHT22;12379;49.820;8.648;2023-03-14T08:41:34;11.80;99.90
24250;DHT22;12379;49.820;8.648;2023-03-14T08:44:06;11.70;99.90
24250;DHT22;12379;49.820;8.648;2023-03-14T08:46:32;12.00;99.90
24250;DHT22;12379;49.820;8.648;2023-03-14T08:48:58;12.50;99.90
24250;DHT22;12379;49.820;8.648;2023-03-14T08:51:23;12.60;99.90
24250;DHT22;12379;49.820;8.648;2023-03-14T08:53:49;12.40;99.90
24250;DHT22;12379;49.820;8.648;2023-03-14T08:56:15;12.40;99.90
24250;DHT22;12379;49.820;8.648;2023-03-14T08:58:41;12.60;99.90
24250;DHT22;12379;49.820;8.648;2023-03-14T09:01:08;12.70;99.90
24250;DHT22;12379;49.820;8.648;2023-03-14T09:03:35;12.40;99.90
24250;DHT22;12379;49.820;8.648;2023-03-14T09:06:05;12.60;99.90
24250;DHT22;12379;49.820;8.648;2023-03-14T09:08:33;12.50;99.90
24250;DHT22;12379;49.820;8.648;2023-03-14T09:10:59;12.60;99.90
24250;DHT22;12379;49.820;8.648;2023-03-14T09:13:25;12.50;99.90
24250;DHT22;12379;49.820;8.648;2023-03-14T09:15:51;12.50;99.90
24250;DHT22;12379;49.820;8.648;2023-03-14T09:18:17;12.30;99.90
24250;DHT22;12379;49.820;8.648;2023-03-14T09:20:43;12.40;99.90
24250;DHT22;12379;49.820;8.648;2023-03-14T09:23:08;12.30;99.90
24250;DHT22;12379;49.820;8.648;2023-03-14T09:25:37;12.20;99.90
24250;DHT22;12379;49.820;8.648;2023-03-14T09:28:03;12.40;99.90
24250;DHT22;12379;49.820;8.648;2023-03-14T09:30:29;12.40;99.90
24250;DHT22;12379;49.820;8.648;2023-03-14T09:32:55;12.60;99.90
24250;DHT22;12379;49.820;8.648;2023-03-14T09:35:20;12.60;99.90
24250;DHT22;12379;49.820;8.648;2023-03-14T09:37:46;12.50;99.90
24250;DHT22;12379;49.820;8.648;2023-03-14T09:40:16;12.70;99.90
24250;DHT22;12379;49.820;8.648;2023-03-14T09:42:43;12.50;99.90
24250;DHT22;12379;49.820;8.648;2023-03-14T09:45:14;12.50;99.90
24250;DHT22;12379;49.820;8.648;2023-03-14T09:47:43;12.40;99.90
24250;DHT22;12379;49.820;8.648;2023-03-14T09:50:13;12.20;99.90
24250;DHT22;12379;49.820;8.648;2023-03-14T09:52:43;12.20;99.90
24250;DHT22;12379;49.820;8.648;2023-03-14T09:55:21;12.20;99.90
24250;DHT22;12379;49.820;8.648;2023-03-14T09:57:50;12.10;99.90
24250;DHT22;12379;49.820;8.648;2023-03-14T10:00:23;12.20;99.90
24250;DHT22;12379;49.820;8.648;2023-03-14T10:05:47;11.90;99.90
24250;DHT22;12379;49.820;8.648;2023-03-14T10:08:16;12.00;99.90
24250;DHT22;12379;49.820;8.648;2023-03-14T10:10:42;12.00;99.90
24250;DHT22;12379;49.820;8.648;2023-03-14T10:13:20;11.90;99.90
24250;DHT22;12379;49.820;8.648;2023-03-14T10:16:01;12.10;99.90
24250;DHT22;12379;49.820;8.648;2023-03-14T10:18:29;11.90;99.90
24250;DHT22;12379;49.820;8.648;2023-03-14T10:21:25;11.90;99.90
24250;DHT22;12379;49.820;8.648;2023-03-14T10:23:51;12.00;99.90
24250;DHT22;12379;49.820;8.648;2023-03-14T10:26:23;12.00;99.90
24250;DHT22;12379;49.820;8.648;2023-03-14T10:29:02;11.90;99.90
24250;DHT22;12379;49.820;8.648;2023-03-14T10:31:57;11.90;99.90
24250;DHT22;12379;49.820;8.648;2023-03-14T10:34:36;12.00;99.90
24250;DHT22;12379;49.820;8.648;2023-03-14T10:37:21;12.20;99.90
24250;DHT22;12379;49.820;8.648;2023-03-14T10:39:47;12.30;99.90
24250;DHT22;12379;49.820;8.648;2023-03-14T10:42:21;12.40;99.90
24250;DHT22;12379;49.820;8.648;2023-03-14T10:44:59;12.30;99.90
24250;DHT22;12379;49.820;8.648;2023-03-14T10:47:27;12.20;99.90
24250;DHT22;12379;49.820;8.648;2023-03-14T10:49:54;12.10;99.90
24250;DHT22;12379;49.820;8.648;2023-03-14T10:52:28;12.10;99.90
24250;DHT22;12379;49.820;8.648;2023-03-14T10:54:58;12.00;99.90
24250;DHT22;12379;49.820;8.648;2023-03-14T10:57:25;11.90;99.90
24250;DHT22;12379;49.820;8.648;2023-03-14T10:59:51;11.90;99.90
24250;DHT22;12379;49.820;8.648;2023-03-14T11:03:08;11.90;99.90
24250;DHT22;12379;49.820;8.648;2023-03-14T11:05:46;12.00;99.90
24250;DHT22;12379;49.820;8.648;2023-03-14T11:10:42;11.70;99.90
24250;DHT22;12379;49.820;8.648;2023-03-14T11:13:43;11.50;99.90
24250;DHT22;12379;49.820;8.648;2023-03-14T11:16:24;11.60;99.90
24250;DHT22;12379;49.820;8.648;2023-03-14T11:19:43;11.50;99.90
24250;DHT22;12379;49.820;8.648;2023-03-14T11:24:41;11.70;99.90
24250;DHT22;12379;49.820;8.648;2023-03-14T11:35:26;11.50;99.90
24250;DHT22;12379;49.820;8.648;2023-03-14T11:37:57;11.40;99.90
24250;DHT22;12379;49.820;8.648;2023-03-14T11:40:27;11.30;99.90
24250;DHT22;12379;49.820;8.648;2023-03-14T11:43:00;11.40;99.90
24250;DHT22;12379;49.820;8.648;2023-03-14T11:45:35;11.40;99.90
24250;DHT22;12379;49.820;8.648;2023-03-14T11:50:43;11.60;99.90
24250;DHT22;12379;49.820;8.648;2023-03-14T11:53:16;11.70;99.90
24250;DHT22;12379;49.820;8.648;2023-03-14T11:55:44;11.80;99.90
24250;DHT22;12379;49.820;8.648;2023-03-14T11:58:26;11.80;99.90
24250;DHT22;12379;49.820;8.648;2023-03-14T12:00:54;11.80;99.90
24250;DHT22;12379;49.820;8.648;2023-03-14T12:08:42;11.60;99.90
24250;DHT22;12379;49.820;8.648;2023-03-14T12:13:51;11.40;99.90
24250;DHT22;12379;49.820;8.648;2023-03-14T12:18:49;10.90;99.90
24250;DHT22;12379;49.820;8.648;2023-03-14T12:21:14;11.00;99.90
24250;DHT22;12379;49.820;8.648;2023-03-14T12:23:48;10.90;99.90
24250;DHT22;12379;49.820;8.648;2023-03-14T12:26:27;10.80;99.90
24250;DHT22;12379;49.820;8.648;2023-03-14T12:42:05;10.70;99.90
24250;DHT22;12379;49.820;8.648;2023-03-14T12:44:48;10.70;99.90
24250;DHT22;12379;49.820;8.648;2023-03-14T12:49:46;10.60;99.90
24250;DHT22;12379;49.820;8.648;2023-03-14T12:52:36;10.70;99.90
24250;DHT22;12379;49.820;8.648;2023-03-14T12:57:57;10.70;99.90
24250;DHT22;12379;49.820;8.648;2023-03-14T13:00:31;10.70;99.90
24250;DHT22;12379;49.820;8.648;2023-03-14T13:03:17;10.60;99.90
24250;DHT22;12379;49.820;8.648;2023-03-14T13:05:56;10.50;99.90
24250;DHT22;12379;49.820;8.648;2023-03-14T13:08:38;10.50;99.90
24250;DHT22;12379;49.820;8.648;2023-03-14T13:11:08;10.40;99.90
24250;DHT22;12379;49.820;8.648;2023-03-14T13:13:37;10.30;99.90
24250;DHT22;12379;49.820;8.648;2023-03-14T13:16:06;10.30;99.90
24250;DHT22;12379;49.820;8.648;2023-03-14T13:18:40;10.20;99.90
24250;DHT22;12379;49.820;8.648;2023-03-14T13:21:19;10.20;99.90
24250;DHT22;12379;49.820;8.648;2023-03-14T13:23:57;10.10;99.90
24250;DHT22;12379;49.820;8.648;2023-03-14T13:26:35;10.00;99.90
24250;DHT22;12379;49.820;8.648;2023-03-14T13:32:25;10.00;99.90
24250;DHT22;12379;49.820;8.648;2023-03-14T13:34:56;10.10;99.90
24250;DHT22;12379;49.820;8.648;2023-03-14T13:37:23;10.00;99.90
24250;DHT22;12379;49.820;8.648;2023-03-14T13:39:56;10.10;99.90
24250;DHT22;12379;49.820;8.648;2023-03-14T13:42:29;9.90;99.90
24250;DHT22;12379;49.820;8.648;2023-03-14T13:44:56;9.80;99.90
24250;DHT22;12379;49.820;8.648;2023-03-14T13:47:23;9.70;99.90
24250;DHT22;12379;49.820;8.648;2023-03-14T13:49:50;9.50;99.90
24250;DHT22;12379;49.820;8.648;2023-03-14T13:52:36;9.50;99.90
24250;DHT22;12379;49.820;8.648;2023-03-14T13:55:04;9.60;99.90
24250;DHT22;12379;49.820;8.648;2023-03-14T13:57:44;9.70;99.90
24250;DHT22;12379;49.820;8.648;2023-03-14T14:00:21;9.80;99.90
24250;DHT22;12379;49.820;8.648;2023-03-14T14:02:48;9.80;99.90
24250;DHT22;12379;49.820;8.648;2023-03-14T14:05:14;9.80;99.90
24250;DHT22;12379;49.820;8.648;2023-03-14T14:07:42;9.80;99.90
24250;DHT22;12379;49.820;8.648;2023-03-14T14:10:11;9.70;99.90
24250;DHT22;12379;49.820;8.648;2023-03-14T14:13:03;9.80;99.90
24250;DHT22;12379;49.820;8.648;2023-03-14T14:15:39;9.80;99.90
24250;DHT22;12379;49.820;8.648;2023-03-14T14:18:08;9.80;99.90
24250;DHT22;12379;49.820;8.648;2023-03-14T14:20:40;9.80;99.90
24250;DHT22;12379;49.820;8.648;2023-03-14T14:23:11;9.90;99.90
24250;DHT22;12379;49.820;8.648;2023-03-14T14:25:38;10.10;99.90
24250;DHT22;12379;49.820;8.648;2023-03-14T14:28:31;10.10;99.90
24250;DHT22;12379;49.820;8.648;2023-03-14T14:33:52;10.00;99.90
24250;DHT22;12379;49.820;8.648;2023-03-14T14:36:31;10.10;99.90
24250;DHT22;12379;49.820;8.648;2023-03-14T14:38:59;10.10;99.90
24250;DHT22;12379;49.820;8.648;2023-03-14T14:41:37;10.20;99.90
24250;DHT22;12379;49.820;8.648;2023-03-14T14:44:05;10.30;99.90
24250;DHT22;12379;49.820;8.648;2023-03-14T14:46:34;10.60;99.90
24250;DHT22;12379;49.820;8.648;2023-03-14T14:49:10;10.60;99.90
24250;DHT22;12379;49.820;8.648;2023-03-14T14:51:45;10.40;99.90
24250;DHT22;12379;49.820;8.648;2023-03-14T14:54:32;10.30;99.90
24250;DHT22;12379;49.820;8.648;2023-03-14T14:57:02;10.10;99.90
24250;DHT22;12379;49.820;8.648;2023-03-14T14:59:28;9.90;99.90
24250;DHT22;12379;49.820;8.648;2023-03-14T15:02:00;9.80;99.90
24250;DHT22;12379;49.820;8.648;2023-03-14T15:04:27;9.70;99.90
24250;DHT22;12379;49.820;8.648;2023-03-14T15:06:55;9.70;99.90
24250;DHT22;12379;49.820;8.648;2023-03-14T15:09:20;9.60;99.90
24250;DHT22;12379;49.820;8.648;2023-03-14T15:11:47;9.50;99.90
24250;DHT22;12379;49.820;8.648;2023-03-14T15:14:13;9.40;99.90
24250;DHT22;12379;49.820;8.648;2023-03-14T15:16:45;9.30;99.90
24250;DHT22;12379;49.820;8.648;2023-03-14T15:19:24;9.40;99.90
24250;DHT22;12379;49.820;8.648;2023-03-14T15:21:52;9.40;99.90
24250;DHT22;12379;49.820;8.648;2023-03-14T15:24:18;9.40;99.90
24250;DHT22;12379;49.820;8.648;2023-03-14T15:26:43;9.40;99.90
24250;DHT22;12379;49.820;8.648;2023-03-14T15:29:11;9.40;99.90
24250;DHT22;12379;49.820;8.648;2023-03-14T15:31:38;9.40;99.90
24250;DHT22;12379;49.820;8.648;2023-03-14T15:34:04;9.40;99.90
24250;DHT22;12379;49.820;8.648;2023-03-14T15:36:33;9.40;99.90
24250;DHT22;12379;49.820;8.648;2023-03-14T15:38:59;9.50;99.90
24250;DHT22;12379;49.820;8.648;2023-03-14T15:41:26;9.40;99.90
24250;DHT22;12379;49.820;8.648;2023-03-14T15:43:52;9.50;99.90
24250;DHT22;12379;49.820;8.648;2023-03-14T15:46:18;9.50;99.90
24250;DHT22;12379;49.820;8.648;2023-03-14T15:48:45;9.50;99.90
24250;DHT22;12379;49.820;8.648;2023-03-14T15:51:11;9.50;99.90
24250;DHT22;12379;49.820;8.648;2023-03-14T15:53:37;9.60;99.90
24250;DHT22;12379;49.820;8.648;2023-03-14T15:56:09;9.70;99.90
24250;DHT22;12379;49.820;8.648;2023-03-14T15:58:39;9.90;99.90
24250;DHT22;12379;49.820;8.648;2023-03-14T16:01:14;10.00;99.90
24250;DHT22;12379;49.820;8.648;2023-03-14T16:03:48;10.10;99.60
24250;DHT22;12379;49.820;8.648;2023-03-14T16:06:16;10.00;99.00
24250;DHT22;12379;49.820;8.648;2023-03-14T16:08:41;9.90;99.20
24250;DHT22;12379;49.820;8.648;2023-03-14T16:11:10;9.80;99.50
24250;DHT22;12379;49.820;8.648;2023-03-14T16:13:37;9.80;99.70
24250;DHT22;12379;49.820;8.648;2023-03-14T16:16:04;9.70;99.60
24250;DHT22;12379;49.820;8.648;2023-03-14T16:18:34;9.70;99.90
24250;DHT22;12379;49.820;8.648;2023-03-14T16:21:02;9.50;99.90
24250;DHT22;12379;49.820;8.648;2023-03-14T16:23:30;9.40;99.90
24250;DHT22;12379;49.820;8.648;2023-03-14T16:25:56;9.40;99.90
24250;DHT22;12379;49.820;8.648;2023-03-14T16:28:22;9.40;99.90
24250;DHT22;12379;49.820;8.648;2023-03-14T16:30:48;9.20;99.90
24250;DHT22;12379;49.820;8.648;2023-03-14T16:33:15;9.30;99.90
24250;DHT22;12379;49.820;8.648;2023-03-14T16:35:57;9.20;99.90
24250;DHT22;12379;49.820;8.648;2023-03-14T16:38:25;9.20;99.90
24250;DHT22;12379;49.820;8.648;2023-03-14T16:40:55;9.10;99.90
24250;DHT22;12379;49.820;8.648;2023-03-14T16:43:21;9.00;99.90
24250;DHT22;12379;49.820;8.648;2023-03-14T16:45:49;9.00;99.90
24250;DHT22;12379;49.820;8.648;2023-03-14T16:48:15;8.90;99.90
24250;DHT22;12379;49.820;8.648;2023-03-14T16:50:41;8.90;99.90
24250;DHT22;12379;49.820;8.648;2023-03-14T16:53:07;8.90;99.90
24250;DHT22;12379;49.820;8.648;2023-03-14T16:55:32;8.90;99.90
24250;DHT22;12379;49.820;8.648;2023-03-14T16:57:58;8.80;99.90
24250;DHT22;12379;49.820;8.648;2023-03-14T17:00:23;8.60;99.90